createdAt,value
2023-02-19T00:01:17.157Z,2.79
2023-02-19T00:03:48.209Z,2.73
2023-02-19T00:06:14.743Z,2.69
2023-02-19T00:08:41.308Z,2.63
2023-02-19T00:11:11.675Z,2.64
2023-02-19T00:13:40.414Z,2.67
2023-02-19T00:16:21.377Z,2.64
2023-02-19T00:18:48.175Z,2.48
2023-02-19T00:21:15.483Z,2.50
2023-02-19T00:23:42.046Z,2.39
2023-02-19T00:26:18.558Z,2.43
2023-02-19T00:28:46.438Z,2.34
2023-02-19T00:31:18.624Z,2.25
2023-02-19T00:33:46.942Z,2.32
2023-02-19T00:36:14.253Z,2.58
2023-02-19T00:38:41.978Z,2.73
2023-02-19T00:41:21.647Z,2.76
2023-02-19T00:43:57.309Z,2.83
2023-02-19T00:46:25.187Z,2.78
2023-02-19T00:48:55.331Z,2.94
2023-02-19T00:51:23.849Z,3.05
2023-02-19T00:53:51.005Z,3.14
2023-02-19T00:56:18.262Z,3.19
2023-02-19T00:58:44.987Z,3.23
2023-02-19T01:01:12.309Z,3.33
2023-02-19T01:03:39.533Z,3.34
2023-02-19T01:06:07.555Z,3.29
2023-02-19T01:08:34.531Z,3.19
2023-02-19T01:11:02.295Z,3.16
2023-02-19T01:13:29.101Z,3.08
2023-02-19T01:16:05.629Z,3.01
2023-02-19T01:18:32.574Z,3.07
2023-02-19T01:20:59.210Z,2.90
2023-02-19T01:23:26.198Z,2.90
2023-02-19T01:25:52.715Z,2.74
2023-02-19T01:28:19.210Z,2.71
2023-02-19T01:30:45.757Z,2.64
2023-02-19T01:33:12.280Z,2.57
2023-02-19T01:35:39.667Z,2.52
2023-02-19T01:38:08.307Z,2.49
2023-02-19T01:40:35.222Z,2.45
2023-02-19T01:43:03.628Z,2.37
2023-02-19T01:45:32.308Z,2.43
2023-02-19T01:48:26.670Z,2.44
2023-02-19T01:51:09.604Z,2.48
2023-02-19T01:53:47.719Z,2.54
2023-02-19T01:56:16.288Z,2.58
2023-02-19T01:58:43.158Z,2.62
2023-02-19T02:01:10.203Z,2.67
2023-02-19T02:03:40.302Z,2.69
2023-02-19T02:06:20.139Z,2.66
2023-02-19T02:09:06.199Z,2.62
2023-02-19T02:11:32.712Z,2.55
2023-02-19T02:13:59.407Z,2.54
2023-02-19T02:16:44.579Z,2.55
2023-02-19T02:19:29.889Z,2.50
2023-02-19T02:22:02.711Z,2.50
2023-02-19T02:24:44.567Z,2.48
2023-02-19T02:27:33.019Z,2.47
2023-02-19T02:30:08.281Z,2.45
2023-02-19T02:32:42.501Z,2.43
2023-02-19T02:35:13.411Z,2.31
2023-02-19T02:37:43.387Z,2.43
2023-02-19T02:40:12.117Z,2.48
2023-02-19T02:42:40.463Z,2.57
2023-02-19T02:45:38.048Z,2.50
2023-02-19T02:48:27.655Z,2.38
2023-02-19T02:51:13.293Z,2.30
2023-02-19T02:54:20.541Z,2.27
2023-02-19T02:56:48.932Z,2.29
2023-02-19T02:59:19.692Z,2.25
2023-02-19T03:02:12.025Z,2.33
2023-02-19T03:05:06.293Z,2.33
2023-02-19T03:08:00.814Z,2.22
2023-02-19T03:10:41.204Z,2.23
2023-02-19T03:13:32.171Z,2.16
2023-02-19T03:16:29.883Z,2.08
2023-02-19T03:19:17.333Z,2.17
2023-02-19T03:21:47.167Z,2.27
2023-02-19T03:24:34.733Z,2.40
2023-02-19T03:27:04.595Z,2.43
2023-02-19T03:29:35.653Z,2.46
2023-02-19T03:32:08.556Z,2.49
2023-02-19T03:34:39.065Z,2.49
2023-02-19T03:37:58.049Z,1.95
2023-02-19T03:40:29.556Z,1.90
2023-02-19T03:43:27.060Z,1.97
2023-02-19T03:45:57.770Z,1.95
2023-02-19T03:48:34.841Z,1.95
2023-02-19T03:51:12.734Z,2.08
2023-02-19T03:53:48.349Z,1.95
2023-02-19T03:56:18.738Z,1.94
2023-02-19T03:58:55.762Z,1.99
2023-02-19T04:01:28.834Z,1.98
2023-02-19T04:04:03.026Z,1.96
2023-02-19T04:06:32.858Z,1.97
2023-02-19T04:09:02.976Z,1.97
2023-02-19T04:11:32.140Z,2.01
2023-02-19T04:14:06.273Z,2.08
2023-02-19T04:16:35.230Z,2.16
2023-02-19T04:19:11.343Z,2.15
2023-02-19T04:21:41.399Z,2.25
2023-02-19T04:24:14.432Z,2.26
2023-02-19T04:26:42.348Z,2.29
2023-02-19T04:29:08.850Z,2.30
2023-02-19T04:31:36.482Z,2.36
2023-02-19T04:34:04.249Z,2.49
2023-02-19T04:36:34.220Z,2.43
2023-02-19T04:39:00.794Z,2.35
2023-02-19T04:41:27.342Z,2.49
2023-02-19T04:43:53.982Z,2.45
2023-02-19T04:46:20.653Z,2.46
2023-02-19T04:48:47.299Z,2.38
2023-02-19T04:51:13.901Z,2.25
2023-02-19T04:53:40.493Z,2.32
2023-02-19T04:56:12.708Z,2.32
2023-02-19T04:58:40.627Z,2.29
2023-02-19T05:01:08.218Z,2.32
2023-02-19T05:03:35.304Z,2.27
2023-02-19T05:06:11.282Z,2.19
2023-02-19T05:08:38.555Z,2.09
2023-02-19T05:11:06.171Z,2.00
2023-02-19T05:13:33.335Z,1.87
2023-02-19T05:16:02.119Z,1.93
2023-02-19T05:18:30.128Z,1.95
2023-02-19T05:20:58.011Z,1.98
2023-02-19T05:23:25.678Z,1.92
2023-02-19T05:25:52.261Z,1.88
2023-02-19T05:28:19.465Z,1.86
2023-02-19T05:30:50.622Z,1.70
2023-02-19T05:33:19.530Z,1.69
2023-02-19T05:35:48.865Z,1.69
2023-02-19T05:38:16.676Z,1.62
2023-02-19T05:40:43.996Z,1.59
2023-02-19T05:43:10.675Z,1.75
2023-02-19T05:45:37.950Z,1.82
2023-02-19T05:48:04.761Z,1.84
2023-02-19T05:50:39.415Z,1.80
2023-02-19T05:53:06.515Z,1.73
2023-02-19T05:55:36.325Z,1.83
2023-02-19T05:58:03.352Z,1.77
2023-02-19T06:00:30.695Z,1.85
2023-02-19T06:02:57.285Z,1.90
2023-02-19T06:05:23.930Z,2.06
2023-02-19T06:07:50.647Z,2.12
2023-02-19T06:10:18.160Z,2.24
2023-02-19T06:12:44.780Z,2.43
2023-02-19T06:15:11.364Z,2.45
2023-02-19T06:17:37.895Z,2.55
2023-02-19T06:20:04.632Z,2.66
2023-02-19T06:22:31.149Z,2.68
2023-02-19T06:24:58.144Z,2.70
2023-02-19T06:27:24.699Z,2.92
2023-02-19T06:29:51.446Z,3.07
2023-02-19T06:49:16.570Z,5.11
2023-02-19T06:51:43.266Z,5.18
2023-02-19T06:54:09.875Z,5.35
2023-02-19T06:56:39.590Z,5.58
2023-02-19T06:59:13.052Z,5.50
2023-02-19T07:01:40.567Z,5.76
2023-02-19T07:04:08.024Z,5.86
2023-02-19T07:06:35.461Z,6.04
2023-02-19T07:09:02.422Z,6.24
2023-02-19T07:11:31.842Z,6.48
2023-02-19T07:14:00.125Z,6.79
2023-02-19T07:16:27.879Z,6.92
2023-02-19T07:18:58.044Z,7.15
2023-02-19T07:21:24.773Z,7.53
2023-02-19T07:23:51.313Z,8.04
2023-02-19T07:26:19.396Z,8.25
2023-02-19T07:28:48.304Z,8.51
2023-02-19T07:31:16.748Z,8.86
2023-02-19T07:33:44.580Z,8.97
2023-02-19T07:36:11.974Z,8.96
2023-02-19T07:38:38.406Z,8.75
2023-02-19T07:41:05.989Z,9.00
2023-02-19T07:43:37.603Z,9.10
2023-02-19T07:46:05.979Z,9.24
2023-02-19T07:48:34.162Z,9.17
2023-02-19T07:51:01.500Z,9.61
2023-02-19T07:53:29.057Z,10.05
2023-02-19T07:56:04.058Z,10.33
2023-02-19T07:58:31.168Z,10.43
2023-02-19T08:00:58.438Z,10.80
2023-02-19T08:03:24.993Z,10.75
2023-02-19T08:05:53.813Z,10.99
2023-02-19T08:08:20.582Z,11.28
2023-02-19T08:11:05.791Z,11.50
2023-02-19T08:13:33.342Z,11.78
2023-02-19T08:16:15.677Z,12.23
2023-02-19T08:18:44.612Z,12.33
2023-02-19T08:21:11.344Z,12.22
2023-02-19T08:23:38.332Z,12.48
2023-02-19T08:26:05.750Z,12.92
2023-02-19T08:28:32.968Z,13.02
2023-02-19T08:31:04.413Z,12.94
2023-02-19T08:33:31.123Z,13.79
2023-02-19T08:36:04.667Z,14.60
2023-02-19T08:38:34.837Z,15.03
2023-02-19T08:41:10.443Z,15.96
2023-02-19T08:43:37.984Z,16.62
2023-02-19T08:46:04.881Z,16.78
2023-02-19T08:48:31.553Z,17.92
2023-02-19T08:51:00.482Z,17.92
2023-02-19T08:53:27.397Z,18.27
2023-02-19T08:55:54.621Z,18.33
2023-02-19T08:58:21.464Z,19.25
2023-02-19T09:00:48.138Z,20.01
2023-02-19T09:03:14.737Z,20.44
2023-02-19T09:05:42.126Z,21.23
2023-02-19T09:08:09.240Z,21.42
2023-02-19T09:10:35.806Z,22.25
2023-02-19T09:13:02.673Z,21.00
2023-02-19T09:15:30.175Z,21.34
2023-02-19T09:17:57.299Z,21.88
2023-02-19T09:20:24.482Z,22.40
2023-02-19T09:22:56.464Z,23.13
2023-02-19T09:25:23.139Z,23.12
2023-02-19T09:27:49.666Z,22.99
2023-02-19T09:30:16.276Z,23.56
2023-02-19T09:32:42.805Z,23.56
2023-02-19T09:35:09.342Z,24.14
2023-02-19T09:37:35.928Z,24.90
2023-02-19T09:40:02.497Z,24.64
2023-02-19T09:42:31.388Z,23.72
2023-02-19T09:45:01.603Z,23.21
2023-02-19T09:47:35.043Z,22.02
2023-02-19T09:50:16.553Z,20.17
2023-02-19T09:52:56.143Z,19.02
2023-02-19T09:55:37.095Z,18.34
2023-02-19T09:58:16.950Z,17.67
2023-02-19T10:00:48.052Z,17.30
2023-02-19T10:03:34.560Z,17.08
2023-02-19T10:06:05.336Z,16.85
2023-02-19T10:08:34.908Z,16.60
2023-02-19T10:11:04.718Z,16.69
2023-02-19T10:13:39.853Z,16.73
2023-02-19T10:16:10.036Z,16.82
2023-02-19T10:18:43.452Z,16.57
2023-02-19T10:21:16.095Z,16.51
2023-02-19T10:23:44.225Z,16.50
2023-02-19T10:26:10.876Z,16.41
2023-02-19T10:28:38.078Z,16.17
2023-02-19T10:31:15.369Z,16.17
2023-02-19T10:34:02.103Z,16.10
2023-02-19T10:36:36.311Z,16.02
2023-02-19T10:39:22.766Z,16.08
2023-02-19T10:41:54.627Z,16.47
2023-02-19T10:44:27.478Z,16.62
2023-02-19T10:46:57.152Z,16.62
2023-02-19T10:49:28.500Z,16.87
2023-02-19T10:51:56.564Z,17.12
2023-02-19T10:54:30.271Z,17.09
2023-02-19T10:57:33.225Z,17.33
2023-02-19T11:00:18.816Z,17.20
2023-02-19T11:02:45.864Z,17.36
2023-02-19T11:05:14.494Z,17.49
2023-02-19T11:07:47.237Z,17.50
2023-02-19T11:10:42.523Z,17.35
2023-02-19T11:13:22.265Z,17.26
2023-02-19T11:15:54.069Z,17.47
2023-02-19T11:18:32.338Z,17.57
2023-02-19T11:21:02.978Z,17.72
2023-02-19T11:23:32.397Z,17.92
2023-02-19T11:26:03.464Z,18.12
2023-02-19T11:28:40.224Z,18.08
2023-02-19T11:31:24.632Z,18.05
2023-02-19T11:34:02.846Z,17.93
2023-02-19T11:36:34.813Z,18.25
2023-02-19T11:39:10.230Z,18.36
2023-02-19T11:41:58.022Z,18.48
2023-02-19T11:44:47.802Z,18.60
2023-02-19T11:47:58.266Z,18.61
2023-02-19T11:50:38.096Z,18.80
2023-02-19T11:53:16.636Z,18.99
2023-02-19T11:55:50.033Z,18.97
2023-02-19T11:58:22.229Z,19.14
2023-02-19T12:01:11.906Z,18.97
2023-02-19T12:03:57.511Z,19.12
2023-02-19T12:06:45.391Z,19.40
2023-02-19T12:09:23.632Z,19.50
2023-02-19T12:12:17.711Z,19.62
2023-02-19T12:14:50.281Z,19.70
2023-02-19T12:17:32.245Z,19.82
2023-02-19T12:20:07.770Z,19.93
2023-02-19T12:22:44.830Z,19.88
2023-02-19T12:25:23.846Z,20.13
2023-02-19T12:28:10.633Z,19.95
2023-02-19T12:30:52.091Z,20.07
2023-02-19T12:33:43.531Z,20.21
2023-02-19T12:36:13.234Z,20.27
2023-02-19T12:38:54.304Z,20.30
2023-02-19T12:41:36.568Z,20.30
2023-02-19T12:44:44.011Z,20.20
2023-02-19T12:47:19.599Z,20.15
2023-02-19T12:49:59.227Z,20.18
2023-02-19T12:52:31.909Z,20.07
2023-02-19T12:55:07.339Z,19.91
2023-02-19T12:57:38.756Z,19.99
2023-02-19T13:00:17.496Z,20.02
2023-02-19T13:03:23.615Z,20.09
2023-02-19T13:05:58.662Z,20.19
2023-02-19T13:08:35.608Z,20.26
2023-02-19T13:11:22.283Z,20.20
2023-02-19T13:13:51.703Z,20.09
2023-02-19T13:16:21.009Z,20.15
2023-02-19T13:18:58.238Z,20.24
2023-02-19T13:21:53.494Z,20.16
2023-02-19T13:24:36.901Z,20.24
2023-02-19T13:27:21.897Z,20.23
2023-02-19T13:29:52.932Z,20.25
2023-02-19T13:32:37.849Z,20.18
2023-02-19T13:35:07.482Z,20.11
2023-02-19T13:37:35.509Z,19.96
2023-02-19T13:40:19.617Z,19.99
2023-02-19T13:42:55.188Z,19.86
2023-02-19T13:45:26.181Z,19.83
2023-02-19T13:47:57.002Z,19.83
2023-02-19T13:50:34.657Z,19.89
2023-02-19T13:53:22.263Z,19.81
2023-02-19T13:55:52.551Z,19.89
2023-02-19T13:58:34.533Z,19.85
2023-02-19T14:01:02.299Z,19.71
2023-02-19T14:03:39.448Z,19.71
2023-02-19T14:06:07.619Z,19.75
2023-02-19T14:08:51.409Z,19.72
2023-02-19T14:11:38.281Z,19.79
2023-02-19T14:14:23.970Z,19.81
2023-02-19T14:16:55.721Z,19.84
2023-02-19T14:19:46.933Z,19.88
2023-02-19T14:22:47.687Z,19.93
2023-02-19T14:25:38.461Z,19.98
2023-02-19T14:28:17.404Z,19.95
2023-02-19T14:31:16.427Z,20.00
2023-02-19T14:33:48.560Z,19.98
2023-02-19T14:36:18.039Z,19.91
2023-02-19T14:38:56.754Z,19.71
2023-02-19T14:41:24.732Z,19.36
2023-02-19T14:43:53.947Z,19.30
2023-02-19T14:46:30.746Z,19.11
2023-02-19T14:49:07.357Z,19.02
2023-02-19T14:51:39.880Z,18.97
2023-02-19T14:54:20.884Z,18.99
2023-02-19T14:56:51.912Z,18.94
2023-02-19T14:59:36.548Z,18.82
2023-02-19T15:02:13.987Z,18.73
2023-02-19T15:04:40.649Z,18.53
2023-02-19T15:07:10.328Z,18.39
2023-02-19T15:09:41.691Z,18.31
2023-02-19T15:12:14.229Z,18.23
2023-02-19T15:14:41.129Z,18.14
2023-02-19T15:17:07.886Z,17.94
2023-02-19T15:19:37.443Z,17.91
2023-02-19T15:22:04.224Z,17.83
2023-02-19T15:24:30.879Z,17.69
2023-02-19T15:27:03.412Z,17.65
2023-02-19T15:29:30.174Z,17.49
2023-02-19T15:31:59.399Z,17.47
2023-02-19T15:34:31.480Z,17.45
2023-02-19T15:36:59.776Z,17.41
2023-02-19T15:39:41.265Z,17.27
2023-02-19T15:42:14.987Z,17.14
2023-02-19T15:44:48.508Z,17.19
2023-02-19T15:47:34.868Z,17.18
2023-02-19T15:50:12.618Z,17.11
2023-02-19T15:52:49.788Z,17.01
2023-02-19T15:55:42.631Z,17.05
2023-02-19T15:58:31.696Z,16.85
2023-02-19T16:01:02.368Z,16.81
2023-02-19T16:03:30.482Z,16.65
2023-02-19T16:06:27.120Z,16.71
2023-02-19T16:09:02.222Z,16.79
2023-02-19T16:11:56.667Z,16.76
2023-02-19T16:14:33.595Z,16.75
2023-02-19T16:17:10.546Z,16.74
2023-02-19T16:19:43.620Z,16.73
2023-02-19T16:22:17.576Z,16.76
2023-02-19T16:24:53.872Z,16.71
2023-02-19T16:27:32.588Z,16.69
2023-02-19T16:30:03.934Z,16.72
2023-02-19T16:32:30.496Z,16.74
2023-02-19T16:34:57.104Z,16.71
2023-02-19T16:37:44.179Z,16.61
2023-02-19T16:40:16.417Z,16.58
2023-02-19T16:42:49.127Z,16.56
2023-02-19T16:45:16.580Z,16.48
2023-02-19T16:47:48.254Z,16.40
2023-02-19T16:50:18.509Z,16.29
2023-02-19T16:52:56.244Z,16.19
2023-02-19T16:55:23.052Z,16.01
2023-02-19T16:57:50.165Z,15.94
2023-02-19T17:00:29.025Z,15.88
2023-02-19T17:02:59.576Z,15.81
2023-02-19T17:05:29.043Z,15.78
2023-02-19T17:07:55.596Z,15.71
2023-02-19T17:10:26.043Z,15.62
2023-02-19T17:12:54.588Z,15.61
2023-02-19T17:15:22.333Z,15.60
2023-02-19T17:17:49.387Z,15.55
2023-02-19T17:20:15.820Z,15.54
2023-02-19T17:22:42.672Z,15.51
2023-02-19T17:25:09.223Z,15.28
2023-02-19T17:27:36.062Z,15.13
2023-02-19T17:30:02.970Z,15.08
2023-02-19T17:32:29.599Z,15.08
2023-02-19T17:34:56.228Z,14.95
2023-02-19T17:37:22.759Z,14.90
2023-02-19T17:39:49.464Z,14.90
2023-02-19T17:42:16.023Z,14.85
2023-02-19T17:44:42.925Z,14.85
2023-02-19T17:47:09.440Z,14.76
2023-02-19T17:49:36.373Z,14.30
2023-02-19T17:52:03.048Z,14.07
2023-02-19T17:54:29.674Z,14.02
2023-02-19T17:56:56.201Z,13.86
2023-02-19T17:59:22.826Z,13.68
2023-02-19T18:01:49.346Z,13.45
2023-02-19T18:04:15.863Z,13.31
2023-02-19T18:06:42.948Z,13.22
2023-02-19T18:09:10.775Z,13.22
2023-02-19T18:11:37.540Z,13.23
2023-02-19T18:14:04.112Z,13.00
2023-02-19T18:16:30.622Z,12.91
2023-02-19T18:18:59.856Z,12.73
2023-02-19T18:21:26.446Z,12.69
2023-02-19T18:23:52.957Z,12.61
2023-02-19T18:26:21.131Z,12.48
2023-02-19T18:28:47.698Z,12.39
2023-02-19T18:31:14.568Z,12.36
2023-02-19T18:33:41.395Z,12.23
2023-02-19T18:36:10.920Z,12.18
2023-02-19T18:38:37.429Z,12.17
2023-02-19T18:41:04.153Z,12.03
2023-02-19T18:43:30.716Z,11.99
2023-02-19T18:45:57.332Z,11.93
2023-02-19T18:48:24.017Z,11.93
2023-02-19T18:50:50.575Z,12.05
2023-02-19T18:53:17.148Z,11.98
2023-02-19T18:55:43.814Z,11.95
2023-02-19T18:58:10.310Z,11.97
2023-02-19T19:00:36.922Z,12.00
2023-02-19T19:03:03.836Z,12.03
2023-02-19T19:05:30.533Z,12.03
2023-02-19T19:07:59.446Z,12.09
2023-02-19T19:10:26.978Z,12.11
2023-02-19T19:12:54.404Z,12.09
2023-02-19T19:15:21.742Z,12.10
2023-02-19T19:17:48.613Z,11.87
2023-02-19T19:20:21.319Z,11.95
2023-02-19T19:22:52.234Z,11.75
2023-02-19T19:25:19.782Z,11.47
2023-02-19T19:27:46.689Z,11.51
2023-02-19T19:30:13.673Z,11.49
2023-02-19T19:32:40.246Z,11.49
2023-02-19T19:35:07.116Z,11.38
2023-02-19T19:37:33.675Z,11.43
2023-02-19T19:40:00.396Z,11.47
2023-02-19T19:42:27.237Z,11.38
2023-02-19T19:44:53.843Z,11.47
2023-02-19T19:47:20.740Z,11.45
2023-02-19T19:49:47.478Z,11.39
2023-02-19T19:52:14.913Z,11.39
2023-02-19T19:54:44.400Z,11.32
2023-02-19T19:57:11.486Z,11.29
2023-02-19T19:59:39.546Z,11.28
2023-02-19T20:02:07.247Z,11.19
2023-02-19T20:04:33.924Z,11.18
2023-02-19T20:07:00.538Z,11.21
2023-02-19T20:09:29.032Z,11.19
2023-02-19T20:11:56.649Z,11.29
2023-02-19T20:14:25.253Z,11.39
2023-02-19T20:16:52.900Z,11.53
2023-02-19T20:19:20.447Z,11.74
2023-02-19T20:21:48.332Z,11.91
2023-02-19T20:24:16.650Z,12.10
2023-02-19T20:26:43.877Z,12.21
2023-02-19T20:29:10.568Z,12.34
2023-02-19T20:31:38.167Z,12.47
2023-02-19T20:34:05.071Z,12.58
2023-02-19T20:36:32.787Z,12.63
2023-02-19T20:38:59.467Z,12.82
2023-02-19T20:41:26.320Z,12.90
2023-02-19T20:43:52.873Z,12.99
2023-02-19T20:46:19.637Z,12.97
2023-02-19T20:48:46.390Z,13.05
2023-02-19T20:51:13.044Z,13.11
2023-02-19T20:53:42.303Z,13.00
2023-02-19T20:56:11.432Z,13.18
2023-02-19T20:58:40.758Z,13.15
2023-02-19T21:01:07.379Z,13.25
2023-02-19T21:03:34.089Z,13.31
2023-02-19T21:06:00.655Z,13.28
2023-02-19T21:08:27.272Z,13.31
2023-02-19T21:10:55.108Z,13.27
2023-02-19T21:13:21.978Z,13.25
2023-02-19T21:15:48.578Z,13.31
2023-02-19T21:18:16.447Z,13.28
2023-02-19T21:20:42.954Z,13.25
2023-02-19T21:23:09.575Z,13.16
2023-02-19T21:25:36.071Z,13.12
2023-02-19T21:28:02.658Z,13.10
2023-02-19T21:30:29.314Z,13.06
2023-02-19T21:32:55.987Z,13.03
2023-02-19T21:35:22.554Z,13.02
2023-02-19T21:37:49.185Z,12.94
2023-02-19T21:40:15.982Z,12.93
2023-02-19T21:42:42.548Z,12.89
2023-02-19T21:45:09.267Z,12.81
2023-02-19T21:47:35.846Z,12.83
2023-02-19T21:50:02.463Z,12.81
2023-02-19T21:52:31.180Z,12.85
2023-02-19T21:54:57.973Z,12.84
2023-02-19T21:57:24.548Z,12.79
2023-02-19T21:59:51.114Z,12.83
2023-02-19T22:02:20.144Z,12.81
2023-02-19T22:04:46.943Z,12.80
2023-02-19T22:07:13.492Z,12.79
2023-02-19T22:09:40.492Z,12.83
2023-02-19T22:12:07.142Z,12.73
2023-02-19T22:14:33.753Z,12.74
2023-02-19T22:17:00.320Z,12.71
2023-02-19T22:19:26.869Z,12.67
2023-02-19T22:21:53.430Z,12.65
2023-02-19T22:24:21.741Z,12.55
2023-02-19T22:26:50.700Z,12.50
2023-02-19T22:29:17.913Z,12.47
2023-02-19T22:31:44.637Z,12.46
2023-02-19T22:34:11.291Z,12.42
2023-02-19T22:36:37.876Z,12.40
2023-02-19T22:39:06.478Z,12.48
2023-02-19T22:41:33.285Z,12.41
2023-02-19T22:44:00.207Z,12.48
2023-02-19T22:46:29.956Z,12.43
2023-02-19T22:48:57.312Z,12.48
2023-02-19T22:51:24.606Z,12.46
2023-02-19T22:53:54.055Z,12.49
2023-02-19T22:56:24.658Z,12.50
2023-02-19T22:58:52.142Z,12.48
2023-02-19T23:01:19.173Z,12.53
2023-02-19T23:03:52.902Z,12.50
2023-02-19T23:06:28.089Z,12.48
2023-02-19T23:08:56.759Z,12.45
2023-02-19T23:11:26.035Z,12.52
2023-02-19T23:13:53.393Z,12.48
2023-02-19T23:16:20.507Z,12.47
2023-02-19T23:18:47.164Z,12.48
2023-02-19T23:21:13.851Z,12.51
2023-02-19T23:23:44.866Z,12.53
2023-02-19T23:26:12.848Z,12.50
2023-02-19T23:28:40.646Z,12.53
2023-02-19T23:31:07.490Z,12.56
2023-02-19T23:33:34.522Z,12.53
2023-02-19T23:36:01.042Z,12.54
2023-02-19T23:38:27.712Z,12.52
2023-02-19T23:40:54.235Z,12.53
2023-02-19T23:43:21.213Z,12.47
2023-02-19T23:45:48.254Z,12.40
2023-02-19T23:48:14.846Z,12.33
2023-02-19T23:50:41.417Z,12.20
2023-02-19T23:53:07.994Z,12.22
2023-02-19T23:55:34.568Z,12.19
2023-02-19T23:58:01.103Z,12.21
